Time;durP1;ratioP1;P1;durP2;ratioP2;P2;SDS_P1;SDS_P2;PMS_P1;PMS_P2;Temp;Humidity;BMP_temperature;BMP_pressure;BME280_temperature;BME280_humidity;BME280_pressure;Samples;Min_cycle;Max_cycle;Signal;HPM_P1;HPM_P2
2021/12/27 00:00:16;;;;;;;7.65;6.20;;;5.40;74.90;;;;;;5155790;27;20043;-51
2021/12/27 00:02:42;;;;;;;7.57;5.60;;;5.40;74.90;;;;;;5155618;27;20035;-51
2021/12/27 00:05:09;;;;;;;7.93;6.32;;;5.50;75.00;;;;;;5153884;27;20504;-49
2021/12/27 00:07:35;;;;;;;6.28;5.65;;;5.40;74.90;;;;;;5155054;27;20565;-47
2021/12/27 00:10:01;;;;;;;7.28;5.95;;;5.40;74.90;;;;;;5155293;27;20050;-47
2021/12/27 00:12:27;;;;;;;9.23;6.35;;;5.40;74.90;;;;;;5155145;27;20129;-46
2021/12/27 00:14:53;;;;;;;7.50;6.20;;;5.40;74.90;;;;;;5173223;27;20505;-49
2021/12/27 00:17:19;;;;;;;9.65;6.72;;;5.40;74.90;;;;;;5176149;27;20038;-48
2021/12/27 00:19:44;;;;;;;8.25;6.70;;;5.40;74.90;;;;;;5175891;27;20429;-48
2021/12/27 00:22:10;;;;;;;8.57;5.88;;;5.40;74.90;;;;;;5156571;27;20049;-48
2021/12/27 00:24:36;;;;;;;7.50;6.13;;;5.40;74.90;;;;;;5176163;27;20386;-49
2021/12/27 00:27:02;;;;;;;7.32;5.95;;;5.40;74.90;;;;;;5175850;27;20125;-50
2021/12/27 00:29:28;;;;;;;7.60;5.55;;;5.40;74.90;;;;;;5175919;27;20046;-50
2021/12/27 00:31:53;;;;;;;6.63;5.85;;;5.40;74.90;;;;;;5175692;27;20125;-51
2021/12/27 00:34:19;;;;;;;7.97;5.93;;;5.40;74.90;;;;;;5175700;27;20042;-49
2021/12/27 00:36:45;;;;;;;7.47;6.10;;;5.40;74.90;;;;;;5175066;27;20431;-49
2021/12/27 00:39:11;;;;;;;8.77;6.90;;;5.40;74.90;;;;;;5175680;27;20588;-48
2021/12/27 00:41:37;;;;;;;6.80;5.43;;;5.40;74.90;;;;;;5175150;27;20102;-48
2021/12/27 00:44:02;;;;;;;7.45;5.88;;;5.40;75.00;;;;;;5175482;27;20385;-47
2021/12/27 00:46:28;;;;;;;7.68;6.10;;;5.40;74.90;;;;;;5175815;27;20121;-50
2021/12/27 00:48:54;;;;;;;8.00;6.25;;;5.40;74.90;;;;;;5175459;27;20039;-50
2021/12/27 00:51:19;;;;;;;7.18;6.25;;;5.40;74.90;;;;;;5175306;27;20078;-47
2021/12/27 00:53:45;;;;;;;8.43;6.80;;;5.40;75.00;;;;;;5175209;27;20164;-48
2021/12/27 00:56:11;;;;;;;8.27;6.20;;;5.40;75.00;;;;;;5175611;27;20042;-47
2021/12/27 00:58:36;;;;;;;8.70;6.38;;;5.40;75.00;;;;;;5175257;27;20053;-48
2021/12/27 01:01:02;;;;;;;8.27;6.30;;;5.40;74.90;;;;;;5156778;27;20128;-48
2021/12/27 01:03:28;;;;;;;8.68;6.32;;;5.40;75.00;;;;;;5175200;27;20044;-47
2021/12/27 01:05:54;;;;;;;8.93;6.50;;;5.40;75.00;;;;;;5175222;27;20042;-51
2021/12/27 01:08:20;;;;;;;7.95;6.80;;;5.40;75.60;;;;;;5174619;27;20049;-47
2021/12/27 01:13:22;;;;;;;8.20;6.32;;;5.40;74.90;;;;;;5171094;27;20069;-48
2021/12/27 01:16:02;;;;;;;7.72;6.38;;;5.40;75.00;;;;;;5153966;27;20454;-48
2021/12/27 01:18:28;;;;;;;8.95;6.75;;;5.40;74.90;;;;;;5154451;27;20061;-47
2021/12/27 01:20:53;;;;;;;8.70;6.70;;;5.40;74.90;;;;;;5154422;27;20031;-48
2021/12/27 01:23:19;;;;;;;7.15;5.78;;;5.40;74.90;;;;;;5154211;27;20074;-49
2021/12/27 01:25:45;;;;;;;8.00;6.32;;;5.40;74.90;;;;;;5153533;27;20047;-47
2021/12/27 01:28:10;;;;;;;7.57;6.43;;;5.40;74.90;;;;;;5154413;27;20039;-48
2021/12/27 01:30:45;;;;;;;8.00;6.47;;;5.40;74.90;;;;;;5154197;27;20574;-51
2021/12/27 01:33:11;;;;;;;8.25;6.22;;;5.40;75.00;;;;;;5153913;27;20039;-52
2021/12/27 01:35:37;;;;;;;8.85;7.05;;;5.40;74.90;;;;;;5153994;27;20043;-49
2021/12/27 01:38:03;;;;;;;7.53;6.57;;;5.40;74.90;;;;;;5135542;27;20050;-49
2021/12/27 01:40:30;;;;;;;9.85;7.22;;;5.40;74.90;;;;;;5134884;27;20424;-49
2021/12/27 01:43:12;;;;;;;8.70;6.38;;;5.40;74.90;;;;;;5154315;27;20065;-50
2021/12/27 01:45:44;;;;;;;9.65;6.78;;;5.40;74.90;;;;;;5154188;27;20047;-49
2021/12/27 01:48:12;;;;;;;9.30;6.40;;;5.40;74.90;;;;;;5153927;27;20047;-49
2021/12/27 01:50:40;;;;;;;9.32;6.70;;;5.40;74.90;;;;;;5154246;27;20062;-48
2021/12/27 01:53:08;;;;;;;9.15;7.45;;;5.40;74.90;;;;;;5153996;27;20043;-48
2021/12/27 01:55:34;;;;;;;8.00;6.22;;;5.40;74.90;;;;;;5153405;27;20490;-49
2021/12/27 01:58:00;;;;;;;8.85;6.60;;;5.40;74.90;;;;;;5135479;27;20087;-50
2021/12/27 02:00:27;;;;;;;9.38;6.57;;;5.40;75.00;;;;;;5153954;27;20046;-49
2021/12/27 02:02:53;;;;;;;9.40;7.05;;;5.40;74.90;;;;;;5135333;27;20118;-50
2021/12/27 02:05:19;;;;;;;8.48;6.30;;;5.40;74.90;;;;;;5153942;27;20439;-47
2021/12/27 02:07:45;;;;;;;9.27;6.80;;;5.40;74.90;;;;;;5153468;27;20042;-51
2021/12/27 02:10:12;;;;;;;8.35;6.78;;;5.40;74.90;;;;;;5153705;27;20360;-47
2021/12/27 02:12:39;;;;;;;7.82;6.10;;;5.40;74.90;;;;;;5153051;27;20054;-49
2021/12/27 02:15:09;;;;;;;8.40;5.90;;;5.40;74.90;;;;;;5173588;27;20098;-49
2021/12/27 02:17:37;;;;;;;8.43;6.85;;;5.40;74.90;;;;;;5174083;27;20057;-49
2021/12/27 02:20:26;;;;;;;9.32;6.97;;;5.40;75.00;;;;;;5174349;27;20038;-49
2021/12/27 02:22:59;;;;;;;9.52;7.20;;;5.40;74.90;;;;;;5174011;27;20122;-47
2021/12/27 02:25:25;;;;;;;9.10;6.57;;;5.40;75.00;;;;;;5174448;27;20042;-51
2021/12/27 02:27:51;;;;;;;9.30;6.78;;;5.40;75.00;;;;;;5175331;27;20057;-50
2021/12/27 02:30:18;;;;;;;8.85;6.07;;;5.40;75.00;;;;;;5177964;27;20042;-48
2021/12/27 02:32:56;;;;;;;7.95;6.57;;;5.40;75.00;;;;;;5177995;27;20500;-48
2021/12/27 02:35:24;;;;;;;8.15;6.50;;;5.40;75.00;;;;;;5178111;27;20129;-49
2021/12/27 02:37:51;;;;;;;9.00;6.35;;;5.40;75.00;;;;;;5178196;27;20038;-49
2021/12/27 02:40:17;;;;;;;8.63;6.82;;;5.40;75.00;;;;;;5178066;27;20065;-48
2021/12/27 02:43:14;;;;;;;8.90;6.90;;;5.40;75.00;;;;;;5177670;27;20458;-49
2021/12/27 02:45:49;;;;;;;9.85;7.00;;;5.40;74.90;;;;;;5156028;27;20119;-50
2021/12/27 02:48:17;;;;;;;9.40;6.95;;;5.40;75.00;;;;;;5177423;27;20041;-46
2021/12/27 02:50:44;;;;;;;7.60;6.13;;;5.30;75.00;;;;;;5178121;27;20038;-50
2021/12/27 02:53:11;;;;;;;9.45;7.78;;;5.40;75.60;;;;;;5177908;27;20427;-48
2021/12/27 02:55:38;;;;;;;9.57;7.47;;;5.30;75.00;;;;;;5177573;27;20087;-46
2021/12/27 02:58:04;;;;;;;8.77;6.97;;;5.40;75.00;;;;;;5177685;27;20039;-51
2021/12/27 03:00:34;;;;;;;7.55;6.50;;;5.30;75.00;;;;;;5177167;27;20042;-49
2021/12/27 03:03:00;;;;;;;9.50;7.55;;;5.40;75.00;;;;;;5177323;27;20042;-47
2021/12/27 03:05:28;;;;;;;8.55;6.97;;;5.30;75.00;;;;;;5177846;27;20057;-48
2021/12/27 03:07:55;;;;;;;7.55;6.38;;;5.30;75.00;;;;;;5177702;27;20042;-48
2021/12/27 03:10:25;;;;;;;9.77;7.47;;;5.30;75.00;;;;;;5177483;27;20058;-43
2021/12/27 03:12:53;;;;;;;9.93;6.60;;;5.40;75.00;;;;;;5176100;27;20045;-50
2021/12/27 03:15:20;;;;;;;7.50;6.35;;;5.30;75.00;;;;;;5138060;27;20367;-48
2021/12/27 03:17:47;;;;;;;8.57;6.45;;;5.40;75.10;;;;;;5155712;27;20554;-44
2021/12/27 03:20:16;;;;;;;8.65;6.60;;;5.30;75.00;;;;;;5156655;27;20168;-48
2021/12/27 03:22:42;;;;;;;10.27;7.90;;;5.40;75.10;;;;;;5156550;27;20042;-48
2021/12/27 03:25:11;;;;;;;7.70;6.90;;;5.40;75.10;;;;;;5156296;27;20038;-50
2021/12/27 03:27:38;;;;;;;9.20;7.32;;;5.40;75.10;;;;;;5156158;27;20051;-45
2021/12/27 03:30:07;;;;;;;8.77;6.60;;;5.40;75.70;;;;;;5137485;27;20035;-49
2021/12/27 03:32:35;;;;;;;8.25;6.82;;;5.40;75.10;;;;;;5155631;27;20106;-45
2021/12/27 03:35:08;;;;;;;8.48;6.90;;;5.30;75.00;;;;;;5155911;27;20062;-49
2021/12/27 03:37:35;;;;;;;9.20;7.05;;;5.30;75.00;;;;;;5156343;27;20034;-48
2021/12/27 03:40:02;;;;;;;8.38;6.93;;;5.30;75.00;;;;;;5154903;27;20031;-50
2021/12/27 03:42:28;;;;;;;9.18;7.10;;;5.40;75.10;;;;;;5156076;27;20047;-47
2021/12/27 03:44:54;;;;;;;8.55;7.18;;;5.30;75.10;;;;;;5155965;27;20030;-51
2021/12/27 03:47:19;;;;;;;8.38;6.65;;;5.40;75.10;;;;;;5154673;27;20062;-51
2021/12/27 03:49:45;;;;;;;8.48;7.35;;;5.30;75.10;;;;;;5155723;27;20054;-49
2021/12/27 03:52:11;;;;;;;8.38;6.88;;;5.30;75.00;;;;;;5155795;27;20046;-48
2021/12/27 03:54:36;;;;;;;7.72;6.53;;;5.30;75.10;;;;;;5155520;27;20081;-47
2021/12/27 03:57:02;;;;;;;7.88;6.82;;;5.30;75.10;;;;;;5155610;27;20042;-47
2021/12/27 04:02:00;;;;;;;9.90;7.28;;;5.30;75.10;;;;;;5155677;27;20401;-50
2021/12/27 04:04:26;;;;;;;8.70;7.22;;;5.30;75.10;;;;;;5154748;27;20125;-46
2021/12/27 04:06:51;;;;;;;10.07;7.53;;;5.30;75.10;;;;;;5155385;27;20039;-45
2021/12/27 04:09:17;;;;;;;9.13;6.95;;;5.30;75.10;;;;;;5155563;27;20077;-51
2021/12/27 04:11:43;;;;;;;9.40;7.30;;;5.30;75.10;;;;;;5155407;27;20429;-51
2021/12/27 04:14:09;;;;;;;9.27;7.32;;;5.30;75.10;;;;;;5167359;27;20087;-46
2021/12/27 04:16:35;;;;;;;8.50;6.95;;;5.30;75.10;;;;;;5175938;27;20061;-47
2021/12/27 04:19:01;;;;;;;8.93;7.47;;;5.30;75.10;;;;;;5175884;27;20045;-48
2021/12/27 04:21:26;;;;;;;10.10;7.28;;;5.30;75.10;;;;;;5175343;27;20034;-46
2021/12/27 04:23:52;;;;;;;8.80;7.13;;;5.30;75.10;;;;;;5156875;27;20121;-46
2021/12/27 04:26:19;;;;;;;9.30;7.28;;;5.30;75.10;;;;;;5176106;27;20061;-46
2021/12/27 04:28:45;;;;;;;8.93;7.30;;;5.30;75.10;;;;;;5175756;27;20137;-51
2021/12/27 04:31:11;;;;;;;11.45;8.20;;;5.30;75.10;;;;;;5175829;27;20042;-50
2021/12/27 04:33:37;;;;;;;9.27;7.18;;;5.30;75.10;;;;;;5157010;27;20061;-48
2021/12/27 04:36:03;;;;;;;10.23;7.55;;;5.30;75.10;;;;;;5174675;27;20030;-48
2021/12/27 04:38:29;;;;;;;9.30;7.57;;;5.30;75.10;;;;;;5175594;27;20046;-47
2021/12/27 04:40:55;;;;;;;8.48;7.00;;;5.30;75.10;;;;;;5175885;27;20380;-50
2021/12/27 04:43:22;;;;;;;9.10;7.35;;;5.30;75.20;;;;;;5175560;27;20090;-50
2021/12/27 04:45:51;;;;;;;10.95;8.32;;;5.30;75.10;;;;;;5175757;27;20034;-49
2021/12/27 04:48:18;;;;;;;9.18;7.22;;;5.30;75.10;;;;;;5175658;27;20038;-48
2021/12/27 04:50:44;;;;;;;9.38;7.25;;;5.30;75.20;;;;;;5175024;27;20049;-46
2021/12/27 04:53:10;;;;;;;9.18;7.45;;;5.30;75.10;;;;;;5174971;27;20485;-47
2021/12/27 04:55:35;;;;;;;8.40;7.28;;;5.30;75.10;;;;;;5175220;27;20046;-50
2021/12/27 04:58:03;;;;;;;9.35;7.43;;;5.30;75.10;;;;;;5175590;27;20035;-48
2021/12/27 05:00:29;;;;;;;8.93;7.15;;;5.30;75.10;;;;;;5155920;27;20061;-51
2021/12/27 05:02:55;;;;;;;8.60;7.03;;;5.30;75.10;;;;;;5175212;27;20401;-46
2021/12/27 05:05:20;;;;;;;9.95;7.40;;;5.30;75.10;;;;;;5175242;27;20038;-48
2021/12/27 05:07:47;;;;;;;9.00;6.70;;;5.30;75.10;;;;;;5174695;27;20131;-48
2021/12/27 05:10:16;;;;;;;9.32;7.03;;;5.30;75.20;;;;;;5156886;27;20053;-47
2021/12/27 05:12:42;;;;;;;11.18;7.78;;;5.30;75.20;;;;;;5175326;27;20182;-51
2021/12/27 05:15:08;;;;;;;8.32;7.00;;;5.30;75.20;;;;;;5154743;27;20042;-48
2021/12/27 05:17:34;;;;;;;9.40;7.28;;;5.30;75.20;;;;;;5154223;27;20058;-46
2021/12/27 05:20:04;;;;;;;9.20;7.30;;;5.30;75.20;;;;;;5154174;27;20047;-48
2021/12/27 05:22:31;;;;;;;8.25;6.95;;;5.30;75.20;;;;;;5154043;27;20081;-47
2021/12/27 05:24:57;;;;;;;8.98;7.32;;;5.30;75.20;;;;;;5153705;27;20663;-51
2021/12/27 05:27:23;;;;;;;8.02;6.93;;;5.30;75.20;;;;;;5154304;27;20443;-46
2021/12/27 05:29:49;;;;;;;9.00;7.35;;;5.30;75.20;;;;;;5154291;27;20030;-48
2021/12/27 05:32:14;;;;;;;10.88;7.70;;;5.30;75.20;;;;;;5153804;27;20035;-51
2021/12/27 05:34:40;;;;;;;10.20;7.63;;;5.30;75.20;;;;;;5154182;27;20044;-47
2021/12/27 05:37:06;;;;;;;10.27;7.50;;;5.30;75.20;;;;;;5154112;27;20451;-49
2021/12/27 05:39:33;;;;;;;10.10;7.88;;;5.30;75.20;;;;;;5153676;27;20038;-50
2021/12/27 05:41:59;;;;;;;9.07;7.63;;;5.30;75.20;;;;;;5154269;27;20066;-50
2021/12/27 05:44:25;;;;;;;9.48;7.43;;;5.30;75.20;;;;;;5154055;27;20035;-49
2021/12/27 05:46:51;;;;;;;10.65;8.05;;;5.30;75.20;;;;;;5135258;27;20494;-48
2021/12/27 05:49:17;;;;;;;10.88;7.38;;;5.30;75.20;;;;;;5154057;27;20049;-46
2021/12/27 05:51:43;;;;;;;9.73;7.72;;;5.30;75.30;;;;;;5153989;27;20505;-49
2021/12/27 05:54:10;;;;;;;8.50;7.35;;;5.30;75.20;;;;;;5153766;27;20375;-50
2021/12/27 05:56:36;;;;;;;9.82;7.63;;;5.30;75.20;;;;;;5134614;27;20074;-50
2021/12/27 05:59:03;;;;;;;8.90;7.25;;;5.30;75.20;;;;;;5153551;27;20038;-48
2021/12/27 06:01:28;;;;;;;10.43;7.82;;;5.30;75.30;;;;;;5153940;27;20038;-47
2021/12/27 06:03:57;;;;;;;8.63;7.32;;;5.30;75.20;;;;;;5157163;27;20042;-47
2021/12/27 06:06:25;;;;;;;9.65;7.75;;;5.30;75.30;;;;;;5158038;27;20049;-50
2021/12/27 06:08:51;;;;;;;9.57;7.65;;;5.30;75.30;;;;;;5157913;27;20047;-50
2021/12/27 06:11:16;;;;;;;9.93;7.88;;;5.30;75.30;;;;;;5137785;27;20111;-51
2021/12/27 06:13:43;;;;;;;9.43;7.53;;;5.30;75.30;;;;;;5165552;27;20049;-48
2021/12/27 06:16:10;;;;;;;9.85;7.65;;;5.30;75.30;;;;;;5178092;27;20042;-48
2021/12/27 06:18:36;;;;;;;9.73;7.38;;;5.30;75.50;;;;;;5178138;27;20046;-49
2021/12/27 06:21:04;;;;;;;10.35;7.88;;;5.30;76.00;;;;;;5178612;27;20042;-49
2021/12/27 06:23:31;;;;;;;9.77;7.28;;;5.30;75.30;;;;;;5178190;27;20042;-52
2021/12/27 06:25:57;;;;;;;9.02;7.65;;;5.30;75.30;;;;;;5177693;27;20038;-49
2021/12/27 06:28:22;;;;;;;10.50;7.82;;;5.30;75.40;;;;;;5177337;27;20192;-51
2021/12/27 06:30:48;;;;;;;11.82;8.05;;;5.30;75.40;;;;;;5178221;27;20079;-48
2021/12/27 06:33:14;;;;;;;11.68;8.25;;;5.30;76.00;;;;;;5177994;27;20046;-48
2021/12/27 06:35:40;;;;;;;10.82;8.05;;;5.30;75.40;;;;;;5178212;27;20039;-51
2021/12/27 06:38:05;;;;;;;10.27;7.75;;;5.30;75.30;;;;;;5178394;27;20049;-49
2021/12/27 06:40:31;;;;;;;9.52;7.45;;;5.30;75.40;;;;;;5178247;27;20077;-48
2021/12/27 06:42:58;;;;;;;10.55;8.18;;;5.30;75.40;;;;;;5177835;27;20069;-50
2021/12/27 06:45:24;;;;;;;10.23;7.70;;;5.30;75.40;;;;;;5159265;27;20042;-51
2021/12/27 06:47:50;;;;;;;11.00;7.22;;;5.30;75.40;;;;;;5178395;27;20125;-50
2021/12/27 06:50:16;;;;;;;10.15;7.75;;;5.30;75.40;;;;;;5178116;27;20073;-48
2021/12/27 06:52:43;;;;;;;9.65;7.22;;;5.30;75.40;;;;;;5178037;27;20053;-50
2021/12/27 06:55:10;;;;;;;10.02;7.70;;;5.30;75.40;;;;;;5177986;27;20117;-49
2021/12/27 06:57:36;;;;;;;11.13;8.65;;;5.30;76.00;;;;;;5177614;27;20074;-49
2021/12/27 07:00:08;;;;;;;9.05;7.80;;;5.30;75.40;;;;;;5177467;27;20046;-48
2021/12/27 07:02:34;;;;;;;8.77;7.72;;;5.30;75.40;;;;;;5160165;27;20122;-49
2021/12/27 07:04:59;;;;;;;10.07;8.48;;;5.30;75.40;;;;;;5178050;27;20454;-51
2021/12/27 07:07:25;;;;;;;11.07;8.60;;;5.30;75.40;;;;;;5177878;27;20046;-48
2021/12/27 07:09:51;;;;;;;10.93;8.50;;;5.30;75.40;;;;;;5177407;27;20117;-48
2021/12/27 07:12:17;;;;;;;10.25;8.55;;;5.30;75.40;;;;;;5177656;27;20611;-48
2021/12/27 07:14:43;;;;;;;10.95;8.30;;;5.30;75.40;;;;;;5159713;27;20102;-45
2021/12/27 07:17:09;;;;;;;10.48;7.60;;;5.30;75.40;;;;;;5156224;27;20051;-46
2021/12/27 07:19:35;;;;;;;10.30;7.93;;;5.30;75.40;;;;;;5156886;27;20118;-48
2021/12/27 07:22:01;;;;;;;9.50;7.78;;;5.30;75.40;;;;;;5156520;27;20178;-51
2021/12/27 07:24:27;;;;;;;8.73;7.82;;;5.30;75.40;;;;;;5156416;27;20030;-50
2021/12/27 07:26:52;;;;;;;9.60;7.97;;;5.30;75.40;;;;;;5137236;27;20082;-50
2021/12/27 07:29:19;;;;;;;9.93;7.93;;;5.30;75.40;;;;;;5156324;27;20147;-46
2021/12/27 07:31:45;;;;;;;9.70;7.57;;;5.30;75.50;;;;;;5155887;27;20047;-45
2021/12/27 07:34:12;;;;;;;10.27;8.02;;;5.30;75.50;;;;;;5156476;27;20043;-50
2021/12/27 07:36:38;;;;;;;10.48;8.27;;;5.30;75.50;;;;;;5156512;27;20053;-48
2021/12/27 07:39:06;;;;;;;10.30;7.95;;;5.30;75.50;;;;;;5156268;27;20117;-47
2021/12/27 07:41:32;;;;;;;10.55;8.05;;;5.30;75.50;;;;;;5156443;27;20038;-47
2021/12/27 07:43:58;;;;;;;11.05;8.13;;;5.30;75.50;;;;;;5155215;27;20057;-47
2021/12/27 07:46:24;;;;;;;9.73;7.82;;;5.30;75.50;;;;;;5155681;27;20416;-47
2021/12/27 07:48:50;;;;;;;10.27;8.20;;;5.30;75.50;;;;;;5154614;27;20039;-50
2021/12/27 07:51:16;;;;;;;12.02;8.25;;;5.30;75.50;;;;;;5154833;27;20126;-47
2021/12/27 07:53:42;;;;;;;11.07;8.15;;;5.30;75.50;;;;;;5154931;27;20106;-46
2021/12/27 07:56:08;;;;;;;12.00;8.38;;;5.30;75.60;;;;;;5155243;27;20038;-48
2021/12/27 07:58:35;;;;;;;11.93;8.00;;;5.30;75.50;;;;;;5155697;27;20443;-47
2021/12/27 08:01:00;;;;;;;11.23;7.93;;;5.30;75.50;;;;;;5155207;27;20039;-45
2021/12/27 08:03:27;;;;;;;10.20;7.93;;;5.30;75.50;;;;;;5154978;27;20050;-44
2021/12/27 08:05:52;;;;;;;11.75;8.48;;;5.30;75.60;;;;;;5154917;27;20486;-46
2021/12/27 08:08:18;;;;;;;11.18;8.43;;;5.30;75.50;;;;;;5155300;27;20110;-47
2021/12/27 08:10:44;;;;;;;11.55;7.80;;;5.30;75.50;;;;;;5155205;27;20402;-47
2021/12/27 08:13:10;;;;;;;11.15;9.00;;;5.30;75.50;;;;;;5158380;27;20391;-46
2021/12/27 08:15:36;;;;;;;10.15;7.88;;;5.30;75.50;;;;;;5175855;27;20038;-47
2021/12/27 08:18:02;;;;;;;10.95;8.45;;;5.30;75.50;;;;;;5156376;27;20399;-44
2021/12/27 08:20:28;;;;;;;11.57;8.43;;;5.30;75.60;;;;;;5174937;27;20046;-48
2021/12/27 08:22:53;;;;;;;10.52;7.82;;;5.30;75.50;;;;;;5174811;27;20046;-46
2021/12/27 08:25:19;;;;;;;12.32;8.43;;;5.30;75.60;;;;;;5174951;27;20369;-48
2021/12/27 08:27:46;;;;;;;11.85;8.77;;;5.30;75.60;;;;;;5174818;27;20217;-47
2021/12/27 08:30:12;;;;;;;10.65;8.70;;;5.30;75.50;;;;;;5175410;27;20390;-51
2021/12/27 08:32:41;;;;;;;12.75;8.63;;;5.30;75.50;;;;;;5175324;27;20042;-47
2021/12/27 08:35:08;;;;;;;13.90;8.88;;;5.30;75.60;;;;;;5174824;27;20118;-46
2021/12/27 08:37:35;;;;;;;11.25;8.50;;;5.30;75.60;;;;;;5175334;27;20039;-49
2021/12/27 08:40:01;;;;;;;12.05;9.30;;;5.30;75.60;;;;;;5175607;27;20035;-47
2021/12/27 08:42:27;;;;;;;11.45;8.57;;;5.30;75.60;;;;;;5175192;27;20423;-47
2021/12/27 08:44:53;;;;;;;11.35;8.27;;;5.30;75.60;;;;;;5175269;27;20059;-49
2021/12/27 08:47:19;;;;;;;10.70;8.80;;;5.30;75.60;;;;;;5175179;27;20034;-47
2021/12/27 08:49:45;;;;;;;12.05;8.88;;;5.30;75.60;;;;;;5175441;27;20070;-48
2021/12/27 08:52:12;;;;;;;10.73;7.97;;;5.30;75.60;;;;;;5175045;27;20085;-47
2021/12/27 08:54:38;;;;;;;10.88;8.55;;;5.30;75.60;;;;;;5175443;27;20034;-47
2021/12/27 08:57:05;;;;;;;10.77;8.70;;;5.30;75.60;;;;;;5175408;27;20462;-48
2021/12/27 08:59:32;;;;;;;11.88;8.95;;;5.30;75.60;;;;;;5175573;27;20041;-44
2021/12/27 09:01:58;;;;;;;9.90;8.18;;;5.30;75.60;;;;;;5175003;27;20077;-44
2021/12/27 09:04:24;;;;;;;11.02;8.90;;;5.30;75.60;;;;;;5175113;27;20390;-43
2021/12/27 09:06:50;;;;;;;10.88;8.10;;;5.30;75.60;;;;;;5175004;27;20049;-45
2021/12/27 09:09:16;;;;;;;12.38;8.82;;;5.30;75.60;;;;;;5175040;27;20047;-44
2021/12/27 09:11:43;;;;;;;12.23;8.90;;;5.30;75.70;;;;;;5175271;27;20048;-46
2021/12/27 09:14:09;;;;;;;11.98;8.35;;;5.30;75.60;;;;;;5162894;27;20046;-45
2021/12/27 09:16:35;;;;;;;15.68;11.60;;;5.30;75.60;;;;;;5153770;27;20047;-54
2021/12/27 09:19:01;;;;;;;17.33;11.10;;;5.20;75.40;;;;;;5154303;27;20077;-55
2021/12/27 09:21:27;;;;;;;18.90;12.18;;;5.20;75.60;;;;;;5154139;27;20046;-47
2021/12/27 09:23:52;;;;;;;18.05;11.48;;;5.20;75.70;;;;;;5153460;27;20438;-54
2021/12/27 09:26:18;;;;;;;19.70;10.75;;;5.20;75.80;;;;;;5153878;27;20039;-50
2021/12/27 09:28:44;;;;;;;15.45;11.35;;;5.20;75.80;;;;;;5153950;27;20089;-54
2021/12/27 09:31:10;;;;;;;16.15;11.73;;;5.20;75.80;;;;;;5153705;27;20046;-55
2021/12/27 09:33:36;;;;;;;18.00;11.65;;;5.20;75.90;;;;;;5154037;27;20050;-52
2021/12/27 09:36:03;;;;;;;15.52;11.45;;;5.20;75.90;;;;;;5153742;27;20482;-52
2021/12/27 09:38:28;;;;;;;24.10;15.43;;;5.20;75.80;;;;;;5157494;27;20084;-53
2021/12/27 09:40:54;;;;;;;18.88;12.95;;;5.20;75.70;;;;;;5157641;27;20046;-54
2021/12/27 09:43:19;;;;;;;18.52;13.13;;;5.20;75.70;;;;;;5157937;27;20074;-49
2021/12/27 09:45:46;;;;;;;21.65;12.60;;;5.10;75.80;;;;;;5158155;27;20478;-54
2021/12/27 09:48:13;;;;;;;18.85;12.68;;;5.10;75.90;;;;;;5161018;27;20066;-51
2021/12/27 09:50:50;;;;;;;15.40;11.93;;;5.10;75.90;;;;;;5177082;27;20124;-53
2021/12/27 09:53:16;;;;;;;18.88;13.02;;;5.10;76.00;;;;;;5170437;27;20042;-52
2021/12/27 09:55:42;;;;;;;19.65;12.68;;;5.10;76.00;;;;;;5156430;27;20110;-46
2021/12/27 09:58:07;;;;;;;18.60;12.32;;;5.10;76.10;;;;;;5156510;27;20171;-52
2021/12/27 10:00:34;;;;;;;18.48;12.73;;;5.10;76.10;;;;;;5156665;27;20035;-53
2021/12/27 10:03:00;;;;;;;16.85;12.05;;;5.10;76.10;;;;;;5156690;27;20049;-47
2021/12/27 10:05:29;;;;;;;16.85;12.77;;;5.10;76.10;;;;;;5156682;27;20398;-51
2021/12/27 10:07:56;;;;;;;17.10;12.00;;;5.10;76.20;;;;;;5156355;27;20075;-51
2021/12/27 10:10:22;;;;;;;20.85;13.13;;;5.10;76.10;;;;;;5137134;27;20055;-52
2021/12/27 10:12:49;;;;;;;17.27;12.55;;;5.10;76.20;;;;;;5156547;27;20050;-54
2021/12/27 10:15:22;;;;;;;20.42;12.75;;;5.10;76.20;;;;;;5177150;27;20042;-48
2021/12/27 10:17:49;;;;;;;18.73;12.77;;;5.10;76.20;;;;;;5177061;27;20063;-49
2021/12/27 10:20:19;;;;;;;16.27;11.88;;;5.10;76.20;;;;;;5177191;27;20046;-55
2021/12/27 10:22:54;;;;;;;17.83;12.23;;;5.10;76.80;;;;;;5176955;27;20034;-54
2021/12/27 10:25:21;;;;;;;17.42;11.77;;;5.20;76.90;;;;;;5177231;27;20405;-50
2021/12/27 10:27:49;;;;;;;17.25;12.05;;;5.10;76.10;;;;;;5176473;27;20038;-50
2021/12/27 10:30:18;;;;;;;20.48;12.43;;;5.10;76.20;;;;;;5176421;27;20034;-50
2021/12/27 10:33:00;;;;;;;17.25;11.80;;;5.10;76.20;;;;;;5177034;27;20050;-50
2021/12/27 10:35:43;;;;;;;17.50;11.52;;;5.20;76.20;;;;;;5176470;27;20050;-48
2021/12/27 10:38:13;;;;;;;16.67;12.00;;;5.20;76.20;;;;;;5176261;27;20050;-55
2021/12/27 10:40:46;;;;;;;16.05;12.13;;;5.20;76.20;;;;;;5176700;27;20039;-50
2021/12/27 10:43:12;;;;;;;15.15;11.32;;;5.20;76.20;;;;;;5158115;27;20045;-49
2021/12/27 10:45:39;;;;;;;17.65;12.02;;;5.10;76.20;;;;;;5152379;27;20091;-48
2021/12/27 10:48:05;;;;;;;16.35;11.65;;;5.20;76.20;;;;;;5152031;27;20089;-51
2021/12/27 10:50:31;;;;;;;15.82;11.80;;;5.20;76.80;;;;;;5151896;27;20074;-53
2021/12/27 10:53:05;;;;;;;17.25;11.70;;;5.20;76.20;;;;;;5152149;27;20046;-52
2021/12/27 10:55:31;;;;;;;16.88;11.45;;;5.20;76.20;;;;;;5152019;27;20074;-52
2021/12/27 10:58:23;;;;;;;17.27;11.60;;;5.20;76.20;;;;;;5133094;27;20543;-49
2021/12/27 11:01:12;;;;;;;17.27;11.48;;;5.20;76.10;;;;;;5151882;27;20159;-54
2021/12/27 11:03:41;;;;;;;15.25;10.80;;;5.20;76.20;;;;;;5133176;27;20158;-50
2021/12/27 11:06:09;;;;;;;15.23;11.20;;;5.20;76.20;;;;;;5151802;27;20051;-48
2021/12/27 11:08:38;;;;;;;16.52;10.77;;;5.20;76.20;;;;;;5156501;27;20038;-48
2021/12/27 11:11:05;;;;;;;17.15;11.35;;;5.20;76.20;;;;;;5172684;27;20053;-53
2021/12/27 11:13:32;;;;;;;16.20;11.60;;;5.20;76.20;;;;;;5172377;27;20061;-50
2021/12/27 11:15:58;;;;;;;15.65;10.85;;;5.20;76.10;;;;;;5158327;27;20050;-52
2021/12/27 11:18:25;;;;;;;15.02;10.70;;;5.20;76.20;;;;;;5172475;27;20413;-51
2021/12/27 11:21:01;;;;;;;15.50;10.95;;;5.20;76.10;;;;;;5139433;27;20043;-50
2021/12/27 11:23:28;;;;;;;20.52;11.80;;;5.20;76.10;;;;;;5174222;27;20039;-50
2021/12/27 11:26:03;;;;;;;14.23;11.02;;;5.20;76.20;;;;;;5172518;27;20035;-48
2021/12/27 11:28:37;;;;;;;16.38;11.80;;;5.20;76.10;;;;;;5155968;27;20130;-49
2021/12/27 11:31:19;;;;;;;15.43;11.35;;;5.20;76.10;;;;;;5155352;27;20088;-47
2021/12/27 11:34:03;;;;;;;18.27;10.80;;;5.20;76.10;;;;;;5155942;27;20121;-49
2021/12/27 11:36:35;;;;;;;16.27;11.80;;;5.20;76.10;;;;;;5155734;27;20047;-53
2021/12/27 11:39:20;;;;;;;16.27;11.70;;;5.20;76.20;;;;;;5163445;27;20050;-55
2021/12/27 11:41:56;;;;;;;14.25;11.20;;;5.20;76.10;;;;;;5155931;27;20047;-56
2021/12/27 11:44:39;;;;;;;17.48;11.63;;;5.20;76.10;;;;;;5174869;27;20114;-48
2021/12/27 11:47:09;;;;;;;14.80;11.07;;;5.20;76.20;;;;;;5175768;27;20052;-48
2021/12/27 11:49:58;;;;;;;19.35;12.20;;;5.20;76.20;;;;;;5176358;27;20389;-52
2021/12/27 11:52:27;;;;;;;17.40;11.52;;;5.20;76.10;;;;;;5176174;27;20062;-56
2021/12/27 11:55:07;;;;;;;18.35;11.10;;;5.20;76.20;;;;;;5176205;27;20121;-55
2021/12/27 11:57:45;;;;;;;16.67;11.48;;;5.20;76.20;;;;;;5176014;27;20042;-52
2021/12/27 12:00:17;;;;;;;18.00;11.25;;;5.20;76.20;;;;;;5156226;27;20050;-52
2021/12/27 12:03:08;;;;;;;17.35;11.55;;;5.20;76.20;;;;;;5175340;27;20068;-56
2021/12/27 12:05:45;;;;;;;15.50;11.25;;;5.30;76.20;;;;;;5175541;27;20469;-53
2021/12/27 12:08:13;;;;;;;16.75;11.90;;;5.30;76.30;;;;;;5158158;27;20050;-49
2021/12/27 12:11:00;;;;;;;16.17;11.02;;;5.20;76.20;;;;;;5175691;27;20053;-49
2021/12/27 12:13:28;;;;;;;19.83;12.23;;;5.30;76.20;;;;;;5175393;27;20045;-53
2021/12/27 12:16:11;;;;;;;15.40;11.00;;;5.20;76.20;;;;;;5159946;27;20042;-50
2021/12/27 12:18:42;;;;;;;16.63;11.45;;;5.30;76.30;;;;;;5154302;27;20050;-49
2021/12/27 12:21:33;;;;;;;16.23;11.00;;;5.30;76.30;;;;;;5154491;27;20505;-54
2021/12/27 12:24:05;;;;;;;18.27;11.65;;;5.30;76.20;;;;;;5154462;27;20051;-54
2021/12/27 12:26:57;;;;;;;17.10;11.30;;;5.30;76.30;;;;;;5154932;27;20043;-56
2021/12/27 12:29:24;;;;;;;19.25;11.45;;;5.30;76.20;;;;;;5135987;27;20122;-54
2021/12/27 12:31:56;;;;;;;17.88;11.93;;;5.20;76.20;;;;;;5135851;27;20510;-55
2021/12/27 12:34:22;;;;;;;18.00;12.20;;;5.30;76.30;;;;;;5154407;27;20035;-54
2021/12/27 12:36:56;;;;;;;17.92;12.18;;;5.30;77.00;;;;;;5154864;27;20035;-53
2021/12/27 12:39:24;;;;;;;18.70;12.00;;;5.20;76.20;;;;;;5154845;27;20035;-54
2021/12/27 12:41:50;;;;;;;18.08;11.25;;;5.30;76.30;;;;;;5154932;27;20046;-53
2021/12/27 12:44:17;;;;;;;17.15;11.23;;;5.30;76.30;;;;;;5154394;27;20050;-48
2021/12/27 12:46:50;;;;;;;16.67;10.55;;;5.30;76.30;;;;;;5154704;27;20087;-54
2021/12/27 12:49:22;;;;;;;17.20;10.85;;;5.30;76.30;;;;;;5154043;27;20046;-52
2021/12/27 12:51:57;;;;;;;16.23;11.50;;;5.30;76.40;;;;;;5154182;27;20046;-53
2021/12/27 12:54:22;;;;;;;17.13;10.77;;;5.30;76.40;;;;;;5154104;27;20125;-50
2021/12/27 12:56:57;;;;;;;15.45;10.52;;;5.30;76.30;;;;;;5154254;27;20130;-53